Impacts METAR Board INFO
IDs:

KSEA - Seattle-Tacoma Intl, WA, US

Updated at: 0914 UTC 20 Jan 2018
Potential Impact None Slight Moderate High
Time19/21Z 19/22Z 19/23Z 20/00Z 20/01Z 20/02Z 20/03Z 20/04Z 20/05Z 20/06Z 20/07Z 20/08Z 20/09Z
VIS10 10 10 10 10 10 10 10 10 10 10 7 10
CIG33 32 34 43 32 30 27 27 23 20 16 14 23
CoverOVCOVCOVCOVCOVCOVCOVCOVCOVCOVCOVCOVCOVC
FltCatVFRVFRVFRVFRVFRMVFRMVFRMVFRMVFRMVFRMVFRMVFRMVFR
WX---RA-------------RA-RA---RA--
WDir180180160180180190190190200210210210180
WSpd9 12 11 12 13 9 14 10 13 13 11 11 12
WGst-- 22 -- -- -- -- -- -- 20 -- 20 21 --
Raw hourly METARs
KSEA 192053Z 18009KT 10SM FEW025 BKN033 OVC055 08/03 A2989 RMK AO2 RAE20 SLP131 P0000 60000 T00780028 50000
KSEA 192153Z 18012G22KT 10SM -RA FEW025 BKN032 OVC050 07/03 A2988 RMK AO2 RAB03 SLP127 P0000 T00720028
KSEA 192253Z 16011KT 10SM SCT030 BKN034 OVC042 07/03 A2988 RMK AO2 RAE19 SLP127 P0000 T00720033
KSEA 192353Z 18012KT 10SM SCT035 BKN043 OVC055 08/03 A2988 RMK AO2 SLP127 60000 T00780028 10078 20067 56004
KSEA 200053Z 18013KT 10SM OVC032 08/02 A2988 RMK AO2 SLP127 T00780022
KSEA 200153Z 19009KT 10SM OVC030 08/02 A2989 RMK AO2 SLP128 T00780022
KSEA 200253Z 19014KT 10SM OVC027 07/03 A2989 RMK AO2 RAB07E16 SLP130 P0000 60000 T00720028 53003
KSEA 200353Z 19010KT 10SM OVC027 07/03 A2990 RMK AO2 SLP134 T00720028
KSEA 200453Z 20013G20KT 10SM -RA OVC023 07/03 A2992 RMK AO2 RAB24 SLP139 P0001 T00720033
KSEA 200553Z 21013KT 10SM -RA OVC020 07/03 A2993 RMK AO2 RAE23B50 SLP142 P0000 60001 T00720033 10078 20067 51012
KSEA 200653Z 21011G20KT 10SM BKN016 OVC022 07/04 A2994 RMK AO2 RAE49 SLP148 P0000 T00670039
KSEA 200753Z 21011G21KT 7SM -RA OVC014 06/04 A2996 RMK AO2 RAB38 SLP153 P0000 T00610039 400780033
KSEA 200853Z 18012KT 10SM SCT010 BKN023 OVC039 06/04 A2996 RMK AO2 RAE17 SLP153 P0001 60001 T00560039 50010